sensor_id;sensor_type;location;lat;lon;timestamp;temperature;humidity
32809;DHT22;19159;48.178;16.386;2023-11-21T00:00:00;14.30;90.30
32809;DHT22;19159;48.178;16.386;2023-11-21T00:02:26;14.20;90.30
32809;DHT22;19159;48.178;16.386;2023-11-21T00:04:55;14.20;90.40
32809;DHT22;19159;48.178;16.386;2023-11-21T00:07:20;14.20;90.40
32809;DHT22;19159;48.178;16.386;2023-11-21T00:09:46;14.10;90.40
32809;DHT22;19159;48.178;16.386;2023-11-21T00:12:12;14.10;90.50
32809;DHT22;19159;48.178;16.386;2023-11-21T00:14:39;14.20;90.60
32809;DHT22;19159;48.178;16.386;2023-11-21T00:17:05;14.20;90.60
32809;DHT22;19159;48.178;16.386;2023-11-21T00:19:31;14.30;90.50
32809;DHT22;19159;48.178;16.386;2023-11-21T00:21:57;14.30;90.40
32809;DHT22;19159;48.178;16.386;2023-11-21T00:24:24;14.30;90.40
32809;DHT22;19159;48.178;16.386;2023-11-21T00:26:50;14.30;90.50
32809;DHT22;19159;48.178;16.386;2023-11-21T00:29:16;14.30;90.40
32809;DHT22;19159;48.178;16.386;2023-11-21T00:31:43;14.20;90.40
32809;DHT22;19159;48.178;16.386;2023-11-21T00:34:11;14.10;90.40
32809;DHT22;19159;48.178;16.386;2023-11-21T00:36:36;14.00;90.50
32809;DHT22;19159;48.178;16.386;2023-11-21T00:39:02;13.90;90.70
32809;DHT22;19159;48.178;16.386;2023-11-21T00:41:29;13.90;90.80
32809;DHT22;19159;48.178;16.386;2023-11-21T00:43:54;13.90;90.90
32809;DHT22;19159;48.178;16.386;2023-11-21T00:46:20;13.80;90.90
32809;DHT22;19159;48.178;16.386;2023-11-21T00:48:46;13.80;90.90
32809;DHT22;19159;48.178;16.386;2023-11-21T00:51:12;13.80;91.00
32809;DHT22;19159;48.178;16.386;2023-11-21T00:53:37;13.70;91.00
32809;DHT22;19159;48.178;16.386;2023-11-21T00:56:03;13.70;91.20
32809;DHT22;19159;48.178;16.386;2023-11-21T00:58:29;13.60;91.20
32809;DHT22;19159;48.178;16.386;2023-11-21T01:00:55;13.60;91.20
32809;DHT22;19159;48.178;16.386;2023-11-21T01:03:21;13.70;91.20
32809;DHT22;19159;48.178;16.386;2023-11-21T01:05:47;13.70;91.20
32809;DHT22;19159;48.178;16.386;2023-11-21T01:08:15;13.60;91.20
32809;DHT22;19159;48.178;16.386;2023-11-21T01:10:40;13.60;91.20
32809;DHT22;19159;48.178;16.386;2023-11-21T01:13:06;13.70;91.30
32809;DHT22;19159;48.178;16.386;2023-11-21T01:15:33;13.80;91.20
32809;DHT22;19159;48.178;16.386;2023-11-21T01:17:58;13.80;91.10
32809;DHT22;19159;48.178;16.386;2023-11-21T01:20:24;13.80;91.10
32809;DHT22;19159;48.178;16.386;2023-11-21T01:22:50;13.70;91.10
32809;DHT22;19159;48.178;16.386;2023-11-21T01:25:16;13.70;91.10
32809;DHT22;19159;48.178;16.386;2023-11-21T01:27:42;13.60;91.10
32809;DHT22;19159;48.178;16.386;2023-11-21T01:30:08;13.60;91.20
32809;DHT22;19159;48.178;16.386;2023-11-21T01:32:36;13.50;91.70
32809;DHT22;19159;48.178;16.386;2023-11-21T01:35:02;13.50;91.40
32809;DHT22;19159;48.178;16.386;2023-11-21T01:37:27;13.50;91.50
32809;DHT22;19159;48.178;16.386;2023-11-21T01:39:54;13.40;91.50
32809;DHT22;19159;48.178;16.386;2023-11-21T01:42:23;13.30;91.50
32809;DHT22;19159;48.178;16.386;2023-11-21T01:44:48;13.30;91.60
32809;DHT22;19159;48.178;16.386;2023-11-21T01:47:14;13.30;91.70
32809;DHT22;19159;48.178;16.386;2023-11-21T01:49:43;13.30;91.70
32809;DHT22;19159;48.178;16.386;2023-11-21T01:52:09;13.30;91.80
32809;DHT22;19159;48.178;16.386;2023-11-21T01:54:37;13.30;91.80
32809;DHT22;19159;48.178;16.386;2023-11-21T01:57:04;13.30;91.80
32809;DHT22;19159;48.178;16.386;2023-11-21T01:59:36;13.40;91.80
32809;DHT22;19159;48.178;16.386;2023-11-21T02:02:06;13.40;91.70
32809;DHT22;19159;48.178;16.386;2023-11-21T02:04:33;13.40;91.70
32809;DHT22;19159;48.178;16.386;2023-11-21T02:06:59;13.40;91.70
32809;DHT22;19159;48.178;16.386;2023-11-21T02:09:26;13.50;91.80
32809;DHT22;19159;48.178;16.386;2023-11-21T02:11:53;13.50;91.70
32809;DHT22;19159;48.178;16.386;2023-11-21T02:14:20;13.50;91.60
32809;DHT22;19159;48.178;16.386;2023-11-21T02:16:51;13.40;91.60
32809;DHT22;19159;48.178;16.386;2023-11-21T02:19:22;13.20;91.70
32809;DHT22;19159;48.178;16.386;2023-11-21T02:21:53;13.10;91.80
32809;DHT22;19159;48.178;16.386;2023-11-21T02:24:22;13.10;91.90
32809;DHT22;19159;48.178;16.386;2023-11-21T02:26:48;13.10;92.00
32809;DHT22;19159;48.178;16.386;2023-11-21T02:29:19;13.00;92.00
32809;DHT22;19159;48.178;16.386;2023-11-21T02:31:51;13.00;92.10
32809;DHT22;19159;48.178;16.386;2023-11-21T02:34:20;13.00;92.10
32809;DHT22;19159;48.178;16.386;2023-11-21T02:36:46;13.00;92.10
32809;DHT22;19159;48.178;16.386;2023-11-21T02:39:13;13.00;92.20
32809;DHT22;19159;48.178;16.386;2023-11-21T02:41:39;12.90;92.30
32809;DHT22;19159;48.178;16.386;2023-11-21T02:44:07;12.80;92.40
32809;DHT22;19159;48.178;16.386;2023-11-21T02:46:33;12.70;92.50
32809;DHT22;19159;48.178;16.386;2023-11-21T02:49:03;12.70;92.60
32809;DHT22;19159;48.178;16.386;2023-11-21T02:51:29;12.60;92.70
32809;DHT22;19159;48.178;16.386;2023-11-21T02:53:56;12.60;92.70
32809;DHT22;19159;48.178;16.386;2023-11-21T02:56:26;12.60;92.80
32809;DHT22;19159;48.178;16.386;2023-11-21T02:58:52;12.50;92.80
32809;DHT22;19159;48.178;16.386;2023-11-21T03:01:18;12.50;92.80
32809;DHT22;19159;48.178;16.386;2023-11-21T03:03:43;12.60;92.80
32809;DHT22;19159;48.178;16.386;2023-11-21T03:06:09;12.70;92.80
32809;DHT22;19159;48.178;16.386;2023-11-21T03:08:35;12.70;92.70
32809;DHT22;19159;48.178;16.386;2023-11-21T03:11:01;12.80;92.60
32809;DHT22;19159;48.178;16.386;2023-11-21T03:13:29;12.70;92.60
32809;DHT22;19159;48.178;16.386;2023-11-21T03:15:54;12.80;92.50
32809;DHT22;19159;48.178;16.386;2023-11-21T03:18:21;12.70;92.50
32809;DHT22;19159;48.178;16.386;2023-11-21T03:20:47;12.60;92.60
32809;DHT22;19159;48.178;16.386;2023-11-21T03:23:13;12.60;92.70
32809;DHT22;19159;48.178;16.386;2023-11-21T03:25:39;12.70;92.70
32809;DHT22;19159;48.178;16.386;2023-11-21T03:28:04;12.70;92.70
32809;DHT22;19159;48.178;16.386;2023-11-21T03:30:30;12.70;92.50
32809;DHT22;19159;48.178;16.386;2023-11-21T03:32:56;12.80;92.50
32809;DHT22;19159;48.178;16.386;2023-11-21T03:35:22;12.70;92.40
32809;DHT22;19159;48.178;16.386;2023-11-21T03:37:47;12.70;92.40
32809;DHT22;19159;48.178;16.386;2023-11-21T03:40:13;12.60;92.40
32809;DHT22;19159;48.178;16.386;2023-11-21T03:42:39;12.60;92.60
32809;DHT22;19159;48.178;16.386;2023-11-21T03:45:08;12.60;92.60
32809;DHT22;19159;48.178;16.386;2023-11-21T03:47:34;12.60;92.70
32809;DHT22;19159;48.178;16.386;2023-11-21T03:50:00;12.60;92.60
32809;DHT22;19159;48.178;16.386;2023-11-21T03:52:26;12.60;92.60
32809;DHT22;19159;48.178;16.386;2023-11-21T03:54:54;12.60;92.50
32809;DHT22;19159;48.178;16.386;2023-11-21T03:57:20;12.60;92.50
32809;DHT22;19159;48.178;16.386;2023-11-21T03:59:46;12.60;92.60
32809;DHT22;19159;48.178;16.386;2023-11-21T04:02:12;12.60;92.60
32809;DHT22;19159;48.178;16.386;2023-11-21T04:04:37;12.60;92.50
32809;DHT22;19159;48.178;16.386;2023-11-21T04:07:03;12.50;92.50
32809;DHT22;19159;48.178;16.386;2023-11-21T04:09:29;12.60;92.40
32809;DHT22;19159;48.178;16.386;2023-11-21T04:11:55;12.50;92.50
32809;DHT22;19159;48.178;16.386;2023-11-21T04:14:21;12.60;92.50
32809;DHT22;19159;48.178;16.386;2023-11-21T04:16:47;12.60;92.50
32809;DHT22;19159;48.178;16.386;2023-11-21T04:19:14;12.50;92.50
32809;DHT22;19159;48.178;16.386;2023-11-21T04:21:42;12.60;92.50
32809;DHT22;19159;48.178;16.386;2023-11-21T04:24:08;12.50;92.50
32809;DHT22;19159;48.178;16.386;2023-11-21T04:26:34;12.50;92.50
32809;DHT22;19159;48.178;16.386;2023-11-21T04:29:00;12.50;92.50
32809;DHT22;19159;48.178;16.386;2023-11-21T04:31:26;12.60;92.50
32809;DHT22;19159;48.178;16.386;2023-11-21T04:33:51;12.50;92.40
32809;DHT22;19159;48.178;16.386;2023-11-21T04:36:17;12.50;92.80
32809;DHT22;19159;48.178;16.386;2023-11-21T04:38:42;12.50;92.50
32809;DHT22;19159;48.178;16.386;2023-11-21T04:41:09;12.50;92.50
32809;DHT22;19159;48.178;16.386;2023-11-21T04:43:35;12.40;92.50
32809;DHT22;19159;48.178;16.386;2023-11-21T04:46:00;12.40;92.50
32809;DHT22;19159;48.178;16.386;2023-11-21T04:48:27;12.30;92.90
32809;DHT22;19159;48.178;16.386;2023-11-21T04:50:53;12.20;92.70
32809;DHT22;19159;48.178;16.386;2023-11-21T04:53:18;12.10;92.70
32809;DHT22;19159;48.178;16.386;2023-11-21T04:55:44;12.20;92.80
32809;DHT22;19159;48.178;16.386;2023-11-21T04:58:11;12.20;92.90
32809;DHT22;19159;48.178;16.386;2023-11-21T05:00:37;12.20;92.80
32809;DHT22;19159;48.178;16.386;2023-11-21T05:03:03;12.10;92.80
32809;DHT22;19159;48.178;16.386;2023-11-21T05:05:30;12.20;92.90
32809;DHT22;19159;48.178;16.386;2023-11-21T05:07:56;12.20;92.90
32809;DHT22;19159;48.178;16.386;2023-11-21T05:10:21;12.30;92.90
32809;DHT22;19159;48.178;16.386;2023-11-21T05:12:48;12.30;92.70
32809;DHT22;19159;48.178;16.386;2023-11-21T05:15:16;12.30;92.70
32809;DHT22;19159;48.178;16.386;2023-11-21T05:17:43;12.40;92.70
32809;DHT22;19159;48.178;16.386;2023-11-21T05:20:13;12.40;92.60
32809;DHT22;19159;48.178;16.386;2023-11-21T05:22:40;12.30;92.60
32809;DHT22;19159;48.178;16.386;2023-11-21T05:25:06;12.30;92.70
32809;DHT22;19159;48.178;16.386;2023-11-21T05:27:35;12.20;92.80
32809;DHT22;19159;48.178;16.386;2023-11-21T05:30:02;12.20;92.90
32809;DHT22;19159;48.178;16.386;2023-11-21T05:32:30;12.10;92.90
32809;DHT22;19159;48.178;16.386;2023-11-21T05:34:56;12.10;93.00
32809;DHT22;19159;48.178;16.386;2023-11-21T05:37:21;12.10;93.00
32809;DHT22;19159;48.178;16.386;2023-11-21T05:39:48;12.10;93.10
32809;DHT22;19159;48.178;16.386;2023-11-21T05:42:14;12.10;93.10
32809;DHT22;19159;48.178;16.386;2023-11-21T05:44:42;12.10;93.10
32809;DHT22;19159;48.178;16.386;2023-11-21T05:47:11;12.20;93.40
32809;DHT22;19159;48.178;16.386;2023-11-21T05:49:37;12.20;93.00
32809;DHT22;19159;48.178;16.386;2023-11-21T05:52:02;12.10;93.00
32809;DHT22;19159;48.178;16.386;2023-11-21T05:54:28;12.10;93.40
32809;DHT22;19159;48.178;16.386;2023-11-21T05:56:54;12.10;93.10
32809;DHT22;19159;48.178;16.386;2023-11-21T05:59:19;12.10;93.00
32809;DHT22;19159;48.178;16.386;2023-11-21T06:01:46;12.10;93.00
32809;DHT22;19159;48.178;16.386;2023-11-21T06:04:12;12.10;93.00
32809;DHT22;19159;48.178;16.386;2023-11-21T06:06:38;12.20;93.40
32809;DHT22;19159;48.178;16.386;2023-11-21T06:09:04;12.20;93.10
32809;DHT22;19159;48.178;16.386;2023-11-21T06:11:31;12.20;93.10
32809;DHT22;19159;48.178;16.386;2023-11-21T06:13:57;12.30;93.10
32809;DHT22;19159;48.178;16.386;2023-11-21T06:16:23;12.30;92.90
32809;DHT22;19159;48.178;16.386;2023-11-21T06:18:49;12.40;92.90
32809;DHT22;19159;48.178;16.386;2023-11-21T06:21:15;12.40;92.80
32809;DHT22;19159;48.178;16.386;2023-11-21T06:23:42;12.40;92.80
32809;DHT22;19159;48.178;16.386;2023-11-21T06:26:08;12.40;92.80
32809;DHT22;19159;48.178;16.386;2023-11-21T06:28:35;12.30;92.80
32809;DHT22;19159;48.178;16.386;2023-11-21T06:31:02;12.40;92.80
32809;DHT22;19159;48.178;16.386;2023-11-21T06:33:34;12.40;92.80
32809;DHT22;19159;48.178;16.386;2023-11-21T06:36:00;12.40;92.80
32809;DHT22;19159;48.178;16.386;2023-11-21T06:38:28;12.50;92.80
32809;DHT22;19159;48.178;16.386;2023-11-21T06:40:56;12.50;92.80
32809;DHT22;19159;48.178;16.386;2023-11-21T06:43:22;12.60;92.80
32809;DHT22;19159;48.178;16.386;2023-11-21T06:45:47;12.60;92.70
32809;DHT22;19159;48.178;16.386;2023-11-21T06:48:13;12.60;92.70
32809;DHT22;19159;48.178;16.386;2023-11-21T06:50:39;12.60;92.70
32809;DHT22;19159;48.178;16.386;2023-11-21T06:53:05;12.60;92.60
32809;DHT22;19159;48.178;16.386;2023-11-21T06:55:32;12.60;92.60
32809;DHT22;19159;48.178;16.386;2023-11-21T06:57:58;12.60;92.50
32809;DHT22;19159;48.178;16.386;2023-11-21T07:00:26;12.60;92.60
32809;DHT22;19159;48.178;16.386;2023-11-21T07:02:53;12.60;92.70
32809;DHT22;19159;48.178;16.386;2023-11-21T07:05:21;12.70;92.70
32809;DHT22;19159;48.178;16.386;2023-11-21T07:07:47;12.70;92.70
32809;DHT22;19159;48.178;16.386;2023-11-21T07:10:13;12.80;92.70
32809;DHT22;19159;48.178;16.386;2023-11-21T07:12:39;12.90;92.50
32809;DHT22;19159;48.178;16.386;2023-11-21T07:15:06;13.00;92.40
32809;DHT22;19159;48.178;16.386;2023-11-21T07:17:37;13.00;92.30
32809;DHT22;19159;48.178;16.386;2023-11-21T07:20:03;13.00;92.30
32809;DHT22;19159;48.178;16.386;2023-11-21T07:22:29;13.00;92.30
32809;DHT22;19159;48.178;16.386;2023-11-21T07:24:55;13.10;92.20
32809;DHT22;19159;48.178;16.386;2023-11-21T07:27:22;13.10;92.20
32809;DHT22;19159;48.178;16.386;2023-11-21T07:29:47;13.10;92.20
32809;DHT22;19159;48.178;16.386;2023-11-21T07:32:14;13.20;92.20
32809;DHT22;19159;48.178;16.386;2023-11-21T07:34:40;13.20;92.20
32809;DHT22;19159;48.178;16.386;2023-11-21T07:37:06;13.30;92.00
32809;DHT22;19159;48.178;16.386;2023-11-21T07:39:32;13.40;92.00
32809;DHT22;19159;48.178;16.386;2023-11-21T07:41:58;13.40;92.00
32809;DHT22;19159;48.178;16.386;2023-11-21T07:44:23;13.50;92.00
32809;DHT22;19159;48.178;16.386;2023-11-21T07:46:49;13.60;91.90
32809;DHT22;19159;48.178;16.386;2023-11-21T07:49:17;13.70;91.90
32809;DHT22;19159;48.178;16.386;2023-11-21T07:51:45;13.70;91.80
32809;DHT22;19159;48.178;16.386;2023-11-21T07:54:11;13.70;91.80
32809;DHT22;19159;48.178;16.386;2023-11-21T07:56:37;13.70;91.90
32809;DHT22;19159;48.178;16.386;2023-11-21T07:59:02;13.70;91.80
32809;DHT22;19159;48.178;16.386;2023-11-21T08:01:28;13.80;91.90
32809;DHT22;19159;48.178;16.386;2023-11-21T08:03:54;13.80;91.90
32809;DHT22;19159;48.178;16.386;2023-11-21T08:06:25;13.80;91.80
32809;DHT22;19159;48.178;16.386;2023-11-21T08:08:51;13.80;91.80
32809;DHT22;19159;48.178;16.386;2023-11-21T08:11:17;13.90;91.80
32809;DHT22;19159;48.178;16.386;2023-11-21T08:13:42;13.90;91.80
32809;DHT22;19159;48.178;16.386;2023-11-21T08:16:08;14.00;91.60
32809;DHT22;19159;48.178;16.386;2023-11-21T08:18:34;14.00;91.50
32809;DHT22;19159;48.178;16.386;2023-11-21T08:20:59;14.10;91.70
32809;DHT22;19159;48.178;16.386;2023-11-21T08:23:26;14.20;91.60
32809;DHT22;19159;48.178;16.386;2023-11-21T08:25:52;14.30;91.60
32809;DHT22;19159;48.178;16.386;2023-11-21T08:28:18;14.30;91.40
32809;DHT22;19159;48.178;16.386;2023-11-21T08:30:44;14.40;91.20
32809;DHT22;19159;48.178;16.386;2023-11-21T08:33:10;14.40;91.00
32809;DHT22;19159;48.178;16.386;2023-11-21T08:35:37;14.40;91.10
32809;DHT22;19159;48.178;16.386;2023-11-21T08:38:03;14.50;91.30
32809;DHT22;19159;48.178;16.386;2023-11-21T08:40:29;14.60;91.10
32809;DHT22;19159;48.178;16.386;2023-11-21T08:42:55;14.80;91.20
32809;DHT22;19159;48.178;16.386;2023-11-21T08:45:23;14.90;91.20
32809;DHT22;19159;48.178;16.386;2023-11-21T08:47:50;15.00;91.10
32809;DHT22;19159;48.178;16.386;2023-11-21T08:50:16;15.10;91.20
32809;DHT22;19159;48.178;16.386;2023-11-21T08:52:42;15.30;91.00
32809;DHT22;19159;48.178;16.386;2023-11-21T08:55:08;15.40;90.70
32809;DHT22;19159;48.178;16.386;2023-11-21T08:57:35;15.50;90.60
32809;DHT22;19159;48.178;16.386;2023-11-21T09:00:02;15.60;90.30
32809;DHT22;19159;48.178;16.386;2023-11-21T09:02:28;15.60;90.00
32809;DHT22;19159;48.178;16.386;2023-11-21T09:04:54;15.60;89.80
32809;DHT22;19159;48.178;16.386;2023-11-21T09:07:20;15.60;89.50
32809;DHT22;19159;48.178;16.386;2023-11-21T09:09:46;15.60;89.50
32809;DHT22;19159;48.178;16.386;2023-11-21T09:12:13;15.80;89.90
32809;DHT22;19159;48.178;16.386;2023-11-21T09:14:39;15.90;89.60
32809;DHT22;19159;48.178;16.386;2023-11-21T09:17:05;15.90;89.00
32809;DHT22;19159;48.178;16.386;2023-11-21T09:19:40;16.00;88.30
32809;DHT22;19159;48.178;16.386;2023-11-21T09:22:06;15.90;88.10
32809;DHT22;19159;48.178;16.386;2023-11-21T09:24:32;15.90;88.00
32809;DHT22;19159;48.178;16.386;2023-11-21T09:27:00;16.00;88.40
32809;DHT22;19159;48.178;16.386;2023-11-21T09:29:28;16.00;88.20
32809;DHT22;19159;48.178;16.386;2023-11-21T09:31:55;16.20;88.30
32809;DHT22;19159;48.178;16.386;2023-11-21T09:34:22;16.20;87.70
32809;DHT22;19159;48.178;16.386;2023-11-21T09:36:48;16.20;87.50
32809;DHT22;19159;48.178;16.386;2023-11-21T09:39:16;16.30;87.90
32809;DHT22;19159;48.178;16.386;2023-11-21T09:45:17;16.60;87.70
32809;DHT22;19159;48.178;16.386;2023-11-21T09:55:34;16.00;86.40
32809;DHT22;19159;48.178;16.386;2023-11-21T09:58:20;15.90;86.00
32809;DHT22;19159;48.178;16.386;2023-11-21T10:00:53;16.00;86.70
32809;DHT22;19159;48.178;16.386;2023-11-21T10:03:19;16.40;87.50
32809;DHT22;19159;48.178;16.386;2023-11-21T10:05:47;16.70;86.10
32809;DHT22;19159;48.178;16.386;2023-11-21T10:08:15;16.90;85.00
32809;DHT22;19159;48.178;16.386;2023-11-21T10:10:44;16.80;84.30
32809;DHT22;19159;48.178;16.386;2023-11-21T10:13:17;16.80;84.30
32809;DHT22;19159;48.178;16.386;2023-11-21T10:15:43;16.70;84.70
32809;DHT22;19159;48.178;16.386;2023-11-21T10:18:14;16.70;84.50
32809;DHT22;19159;48.178;16.386;2023-11-21T10:20:43;16.50;84.80
32809;DHT22;19159;48.178;16.386;2023-11-21T10:23:10;16.50;85.30
32809;DHT22;19159;48.178;16.386;2023-11-21T10:25:36;16.60;85.80
32809;DHT22;19159;48.178;16.386;2023-11-21T10:28:03;16.80;85.10
32809;DHT22;19159;48.178;16.386;2023-11-21T10:30:38;17.10;84.60
32809;DHT22;19159;48.178;16.386;2023-11-21T10:33:33;17.60;84.60
32809;DHT22;19159;48.178;16.386;2023-11-21T10:36:03;18.00;82.90
32809;DHT22;19159;48.178;16.386;2023-11-21T10:38:33;17.90;82.80
32809;DHT22;19159;48.178;16.386;2023-11-21T10:41:11;17.80;82.90
32809;DHT22;19159;48.178;16.386;2023-11-21T10:43:39;17.80;83.00
32809;DHT22;19159;48.178;16.386;2023-11-21T10:46:05;17.70;82.60
32809;DHT22;19159;48.178;16.386;2023-11-21T10:48:32;17.70;83.10
32809;DHT22;19159;48.178;16.386;2023-11-21T10:50:58;17.60;83.30
32809;DHT22;19159;48.178;16.386;2023-11-21T10:53:28;17.50;82.80
32809;DHT22;19159;48.178;16.386;2023-11-21T10:56:05;17.20;82.40
32809;DHT22;19159;48.178;16.386;2023-11-21T10:58:33;17.10;83.50
32809;DHT22;19159;48.178;16.386;2023-11-21T11:00:59;17.30;84.00
32809;DHT22;19159;48.178;16.386;2023-11-21T11:03:26;17.50;84.00
32809;DHT22;19159;48.178;16.386;2023-11-21T11:05:53;17.60;84.00
32809;DHT22;19159;48.178;16.386;2023-11-21T11:08:21;17.80;83.50
32809;DHT22;19159;48.178;16.386;2023-11-21T11:10:52;17.80;82.90
32809;DHT22;19159;48.178;16.386;2023-11-21T11:13:18;17.80;82.90
32809;DHT22;19159;48.178;16.386;2023-11-21T11:15:47;17.80;83.00
32809;DHT22;19159;48.178;16.386;2023-11-21T11:18:14;17.60;82.40
32809;DHT22;19159;48.178;16.386;2023-11-21T11:20:43;17.60;83.00
32809;DHT22;19159;48.178;16.386;2023-11-21T11:31:58;18.60;79.70
32809;DHT22;19159;48.178;16.386;2023-11-21T11:37:20;18.20;79.70
32809;DHT22;19159;48.178;16.386;2023-11-21T11:39:49;18.00;80.10
32809;DHT22;19159;48.178;16.386;2023-11-21T11:42:16;18.10;80.30
32809;DHT22;19159;48.178;16.386;2023-11-21T11:47:27;19.10;81.10
32809;DHT22;19159;48.178;16.386;2023-11-21T11:52:41;20.90;75.50
32809;DHT22;19159;48.178;16.386;2023-11-21T11:55:12;20.50;74.70
32809;DHT22;19159;48.178;16.386;2023-11-21T11:57:40;20.90;74.90
32809;DHT22;19159;48.178;16.386;2023-11-21T12:00:15;20.80;74.40
32809;DHT22;19159;48.178;16.386;2023-11-21T12:02:44;21.20;73.70
32809;DHT22;19159;48.178;16.386;2023-11-21T12:05:18;20.50;72.70
32809;DHT22;19159;48.178;16.386;2023-11-21T12:07:47;19.80;73.70
32809;DHT22;19159;48.178;16.386;2023-11-21T12:10:18;19.40;74.80
32809;DHT22;19159;48.178;16.386;2023-11-21T12:12:49;19.00;75.60
32809;DHT22;19159;48.178;16.386;2023-11-21T12:15:15;18.70;76.30
32809;DHT22;19159;48.178;16.386;2023-11-21T12:17:42;18.40;76.50
32809;DHT22;19159;48.178;16.386;2023-11-21T12:20:09;18.20;77.00
32809;DHT22;19159;48.178;16.386;2023-11-21T12:22:59;18.00;77.30
32809;DHT22;19159;48.178;16.386;2023-11-21T12:25:29;17.80;78.00
32809;DHT22;19159;48.178;16.386;2023-11-21T12:27:57;17.70;78.40
32809;DHT22;19159;48.178;16.386;2023-11-21T12:30:25;17.60;78.60
32809;DHT22;19159;48.178;16.386;2023-11-21T12:32:55;17.30;78.90
32809;DHT22;19159;48.178;16.386;2023-11-21T12:35:32;17.20;79.50
32809;DHT22;19159;48.178;16.386;2023-11-21T12:38:02;17.20;79.90
32809;DHT22;19159;48.178;16.386;2023-11-21T12:40:28;17.00;80.00
32809;DHT22;19159;48.178;16.386;2023-11-21T12:42:59;16.90;80.30
32809;DHT22;19159;48.178;16.386;2023-11-21T12:45:27;16.80;80.60
32809;DHT22;19159;48.178;16.386;2023-11-21T12:48:01;16.80;80.90
32809;DHT22;19159;48.178;16.386;2023-11-21T12:50:33;16.80;81.20
32809;DHT22;19159;48.178;16.386;2023-11-21T12:53:04;16.80;81.40
32809;DHT22;19159;48.178;16.386;2023-11-21T12:55:31;16.80;81.60
32809;DHT22;19159;48.178;16.386;2023-11-21T12:57:57;16.60;81.80
32809;DHT22;19159;48.178;16.386;2023-11-21T13:00:45;16.70;82.30
32809;DHT22;19159;48.178;16.386;2023-11-21T13:03:12;16.70;82.40
32809;DHT22;19159;48.178;16.386;2023-11-21T13:05:43;16.60;82.30
32809;DHT22;19159;48.178;16.386;2023-11-21T13:08:14;16.60;82.60
32809;DHT22;19159;48.178;16.386;2023-11-21T13:10:44;16.40;82.80
32809;DHT22;19159;48.178;16.386;2023-11-21T13:13:13;16.40;83.20
32809;DHT22;19159;48.178;16.386;2023-11-21T13:15:57;16.30;83.60
32809;DHT22;19159;48.178;16.386;2023-11-21T13:18:26;16.40;84.00
32809;DHT22;19159;48.178;16.386;2023-11-21T13:20:54;16.40;84.10
32809;DHT22;19159;48.178;16.386;2023-11-21T13:23:20;16.40;84.30
32809;DHT22;19159;48.178;16.386;2023-11-21T13:25:47;16.40;84.10
32809;DHT22;19159;48.178;16.386;2023-11-21T13:28:14;16.30;84.20
32809;DHT22;19159;48.178;16.386;2023-11-21T13:30:48;16.20;85.10
32809;DHT22;19159;48.178;16.386;2023-11-21T13:33:14;16.10;85.10
32809;DHT22;19159;48.178;16.386;2023-11-21T13:35:43;16.00;85.30
32809;DHT22;19159;48.178;16.386;2023-11-21T13:38:14;15.90;85.40
32809;DHT22;19159;48.178;16.386;2023-11-21T13:40:47;15.90;85.60
32809;DHT22;19159;48.178;16.386;2023-11-21T13:43:16;15.80;86.00
32809;DHT22;19159;48.178;16.386;2023-11-21T13:45:43;15.80;86.20
32809;DHT22;19159;48.178;16.386;2023-11-21T13:48:10;15.70;86.40
32809;DHT22;19159;48.178;16.386;2023-11-21T13:50:43;15.70;87.00
32809;DHT22;19159;48.178;16.386;2023-11-21T13:53:14;15.70;87.40
32809;DHT22;19159;48.178;16.386;2023-11-21T13:55:52;15.70;87.50
32809;DHT22;19159;48.178;16.386;2023-11-21T13:58:23;15.70;87.60
32809;DHT22;19159;48.178;16.386;2023-11-21T14:01:00;15.60;87.80
32809;DHT22;19159;48.178;16.386;2023-11-21T14:03:27;15.60;88.50
32809;DHT22;19159;48.178;16.386;2023-11-21T14:06:05;15.50;88.60
32809;DHT22;19159;48.178;16.386;2023-11-21T14:08:40;15.40;88.80
32809;DHT22;19159;48.178;16.386;2023-11-21T14:11:07;15.30;89.30
32809;DHT22;19159;48.178;16.386;2023-11-21T14:13:33;15.20;89.60
32809;DHT22;19159;48.178;16.386;2023-11-21T14:15:59;15.20;90.00
32809;DHT22;19159;48.178;16.386;2023-11-21T14:18:28;15.20;90.10
32809;DHT22;19159;48.178;16.386;2023-11-21T14:21:06;15.20;90.20
32809;DHT22;19159;48.178;16.386;2023-11-21T14:23:33;15.20;90.30
32809;DHT22;19159;48.178;16.386;2023-11-21T14:26:01;15.10;90.50
32809;DHT22;19159;48.178;16.386;2023-11-21T14:28:27;15.10;90.50
32809;DHT22;19159;48.178;16.386;2023-11-21T14:30:53;15.10;90.50
32809;DHT22;19159;48.178;16.386;2023-11-21T14:33:18;15.10;90.60
32809;DHT22;19159;48.178;16.386;2023-11-21T14:35:44;15.10;90.70
32809;DHT22;19159;48.178;16.386;2023-11-21T14:38:10;15.00;90.70
32809;DHT22;19159;48.178;16.386;2023-11-21T14:40:36;15.00;90.80
32809;DHT22;19159;48.178;16.386;2023-11-21T14:43:02;14.90;90.90
32809;DHT22;19159;48.178;16.386;2023-11-21T14:45:34;14.80;91.00
32809;DHT22;19159;48.178;16.386;2023-11-21T14:48:00;14.80;91.30
32809;DHT22;19159;48.178;16.386;2023-11-21T14:50:41;14.70;91.20
32809;DHT22;19159;48.178;16.386;2023-11-21T14:53:11;14.70;91.40
32809;DHT22;19159;48.178;16.386;2023-11-21T14:55:39;14.60;91.50
32809;DHT22;19159;48.178;16.386;2023-11-21T14:58:17;14.60;91.70
32809;DHT22;19159;48.178;16.386;2023-11-21T15:00:54;14.60;91.70
32809;DHT22;19159;48.178;16.386;2023-11-21T15:03:24;14.60;91.70
32809;DHT22;19159;48.178;16.386;2023-11-21T15:06:09;14.60;91.80
32809;DHT22;19159;48.178;16.386;2023-11-21T15:08:52;14.60;91.90
32809;DHT22;19159;48.178;16.386;2023-11-21T15:11:25;14.60;92.10
32809;DHT22;19159;48.178;16.386;2023-11-21T15:13:56;14.60;92.30
32809;DHT22;19159;48.178;16.386;2023-11-21T15:16:22;14.50;92.40
32809;DHT22;19159;48.178;16.386;2023-11-21T15:18:48;14.50;92.50
32809;DHT22;19159;48.178;16.386;2023-11-21T15:21:14;14.40;92.70
32809;DHT22;19159;48.178;16.386;2023-11-21T15:23:40;14.40;92.70
32809;DHT22;19159;48.178;16.386;2023-11-21T15:26:07;14.30;92.80
32809;DHT22;19159;48.178;16.386;2023-11-21T15:28:34;14.30;92.90
32809;DHT22;19159;48.178;16.386;2023-11-21T15:31:00;14.40;92.90
32809;DHT22;19159;48.178;16.386;2023-11-21T15:33:28;14.40;93.20
32809;DHT22;19159;48.178;16.386;2023-11-21T15:35:53;14.50;92.90
32809;DHT22;19159;48.178;16.386;2023-11-21T15:38:20;14.40;92.80
32809;DHT22;19159;48.178;16.386;2023-11-21T15:40:46;14.30;92.80
32809;DHT22;19159;48.178;16.386;2023-11-21T15:43:12;14.30;92.80
32809;DHT22;19159;48.178;16.386;2023-11-21T15:45:39;14.20;92.90